Air Sicilia Virtual Airways - Route

Air Sicilia Virtual Airways - SIC099L

( MA ) GMTT
Ibn Batouta Airport
TANGIER ( TNG )
plane_to ( MA ) GMTA
Cherif Al Idrissi Airport
AL HOCEIMA ( AHU )
Mediterraneo TOUR VFR - LEG: 19

AIRPORT NEAR NAVIGATION AIDS

Type Name Frequency
VOR-DME Tanger 115900 KHZ

METAR / TAF
GMTT 210400Z 24003KT 200V260 9999 SCT005 SCT011 22/20 Q1016 NOSIG

RUNWAY INFORMATION

Runway Runway length Runway width Runway elevation Runway displaced threshold Runway heading
07 6562 98 0 0 68.8
25 6562 98 0 0 248.8
10 11483 148 20 0 96
28 11483 148 62 1640 276

AIRPORT FREQUENCIES

Type Name Frequency
APP TANGER APP 121.2 MHZ
TWR TANGER TWR 119.5 MHZ

AIRPORT NEAR NAVIGATION AIDS

Type Name Frequency
VOR-DME Al Hoceima 115000 KHZ
NDB Al Hoceima 401 KHZ

METAR / TAF
GMTA 210400Z 26003KT CAVOK 22/20 Q1015 NOSIG

RUNWAY INFORMATION

Runway Runway length Runway width Runway elevation Runway displaced threshold Runway heading
18 8202 148 21 0 173
36 8202 148 96 0 353

AIRPORT FREQUENCIES

Type Name Frequency
TWR AL HOCEIMA 118.7 MHZ

Flightplan

passando per FOCI OUED BOUCHIA

Air Sicilia Virtual Airways Fleets

AVAILABLE AIRCRAFTS for route at this time in Ibn Batouta Airport
C172 - Cessna 172 Skyhawk
( US ) Cessna

Aircraft in fleet: 13

141 NM

Distance in nautical miles.

€ 100,00

Ticket price for this flight.

Nr. 19

Leg



12-11-2018
Aerosoft Airport Rio de Janeiro International V2.0 XP

L'Aeroporto Internazionale di Rio de Janeiro-Galeão (IATA: GIG, ICAO: SBGL), costruito nel 1952 nel quartiere di Ilha do Governador ed intitolato al musicista Antônio Carlos Jobim, è il principale aeroporto internazio ....


15-10-2018
Aerosoft A320 Family professional

La gamma di aeromobili A320 è una delle più comuni nei cieli. Questi aerei di linea a doppio-getto a corto e medio raggio si sono dimostrati convenienti, affidabili e prontamente disponibili, rendendoli le opzioni migl ....


10-10-2018
Motore critico ( Critical Engine )

Il motore critico di un velivolo ad ala fissa multi-motore è il motore che, in caso di guasto, influirebbe negativamente sulle prestazioni o sulla capacità di manovra di un aereo. Sui velivoli ad elica, vi è un ....


04-10-2018
Aerosoft Dortmund XP

Scopri il centro della regione della Ruhr su XPlane 11 - lo scenario Dortmund XP è una ricostruzione completa della città di Dortmund per il simulatore di volo targato Laminar. Oltre all'intera area urbana di Dortmu ....


07-08-2018
Aerosoft Professional Flight Planner PFPX

PFPX - Professional Flight Planner X - è un nuovo ed innovativo strumento di pianificazione del volo sviluppato da piloti e dispatcher del mondo reale. È un'aggiunta preziosa e realistica alla tua esperienza di simulaz ....